createdAt,value
2018-09-23T00:00:36.969Z,20.56
2018-09-23T00:01:37.163Z,20.56
2018-09-23T00:02:37.172Z,20.56
2018-09-23T00:03:36.890Z,20.57
2018-09-23T00:04:36.998Z,20.54
2018-09-23T00:05:36.959Z,20.53
2018-09-23T00:06:36.805Z,20.54
2018-09-23T00:07:36.934Z,20.54
2018-09-23T00:08:37.154Z,20.53
2018-09-23T00:09:36.836Z,20.53
2018-09-23T00:10:36.933Z,20.54
2018-09-23T00:11:36.944Z,20.55
2018-09-23T00:12:36.912Z,20.55
2018-09-23T00:13:36.883Z,20.54
2018-09-23T00:14:36.665Z,20.55
2018-09-23T00:15:36.772Z,20.56
2018-09-23T00:16:36.895Z,20.55
2018-09-23T00:17:37.194Z,20.55
2018-09-23T00:18:36.734Z,20.54
2018-09-23T00:19:36.844Z,20.53
2018-09-23T00:20:37.007Z,20.55
2018-09-23T00:21:36.941Z,20.54
2018-09-23T00:22:36.852Z,20.54
2018-09-23T00:23:37.873Z,20.54
2018-09-23T00:24:37.071Z,20.55
2018-09-23T00:25:36.945Z,20.53
2018-09-23T00:26:36.807Z,20.54
2018-09-23T00:27:36.905Z,20.55
2018-09-23T00:28:37.089Z,20.54
2018-09-23T00:29:36.684Z,20.53
2018-09-23T00:30:37.091Z,20.53
2018-09-23T00:31:36.888Z,20.54
2018-09-23T00:32:36.751Z,20.53
2018-09-23T00:33:36.946Z,20.53
2018-09-23T00:34:36.909Z,20.53
2018-09-23T00:35:36.897Z,20.53
2018-09-23T00:36:36.777Z,20.53
2018-09-23T00:37:36.851Z,20.53
2018-09-23T00:38:36.980Z,20.53
2018-09-23T00:39:37.011Z,20.53
2018-09-23T00:40:36.978Z,20.53
2018-09-23T00:41:37.045Z,20.53
2018-09-23T00:42:36.715Z,20.51
2018-09-23T00:43:37.043Z,20.53
2018-09-23T00:44:37.260Z,20.52
2018-09-23T00:45:37.274Z,20.53
2018-09-23T00:46:36.794Z,20.52
2018-09-23T00:47:36.709Z,20.53
2018-09-23T00:48:36.916Z,20.52
2018-09-23T00:49:36.850Z,20.51
2018-09-23T00:50:37.133Z,20.52
2018-09-23T00:51:36.785Z,20.53
2018-09-23T00:52:36.954Z,20.53
2018-09-23T00:53:37.065Z,20.52
2018-09-23T00:54:37.173Z,20.53
2018-09-23T00:55:36.961Z,20.53
2018-09-23T00:56:36.845Z,20.53
2018-09-23T00:57:37.088Z,20.52
2018-09-23T00:58:36.769Z,20.51
2018-09-23T00:59:36.824Z,20.51
2018-09-23T01:00:36.850Z,20.51
2018-09-23T01:01:36.742Z,20.52
2018-09-23T01:02:36.703Z,20.51
2018-09-23T01:03:36.931Z,20.48
2018-09-23T01:04:36.840Z,20.51
2018-09-23T01:05:36.857Z,20.52
2018-09-23T01:06:36.825Z,20.52
2018-09-23T01:07:36.877Z,20.51
2018-09-23T01:08:37.047Z,20.5
2018-09-23T01:09:36.950Z,20.52
2018-09-23T01:10:36.712Z,20.52
2018-09-23T01:11:37.025Z,20.52
2018-09-23T01:12:36.854Z,20.53
2018-09-23T01:13:36.820Z,20.51
2018-09-23T01:14:36.728Z,20.51
2018-09-23T01:15:36.998Z,20.52
2018-09-23T01:16:36.884Z,20.51
2018-09-23T01:17:36.988Z,20.5
2018-09-23T01:18:36.810Z,20.5
2018-09-23T01:19:36.760Z,20.5
2018-09-23T01:20:36.790Z,20.5
2018-09-23T01:21:37.363Z,20.5
2018-09-23T01:22:37.057Z,20.51
2018-09-23T01:23:37.074Z,20.52
2018-09-23T01:24:36.713Z,20.52
2018-09-23T01:25:37.173Z,20.51
2018-09-23T01:26:36.785Z,20.52
2018-09-23T01:27:36.818Z,20.51
2018-09-23T01:28:36.928Z,20.51
2018-09-23T01:29:37.128Z,20.5
2018-09-23T01:30:37.118Z,20.49
2018-09-23T01:31:36.803Z,20.5
2018-09-23T01:32:36.705Z,20.49
2018-09-23T01:33:36.804Z,20.49
2018-09-23T01:34:36.911Z,20.48
2018-09-23T01:35:36.678Z,20.48
2018-09-23T01:36:36.996Z,20.47
2018-09-23T01:37:36.845Z,20.47
2018-09-23T01:38:37.058Z,20.48
2018-09-23T01:39:37.165Z,20.48
2018-09-23T01:40:36.988Z,20.48
2018-09-23T01:41:36.725Z,20.49
2018-09-23T01:42:36.860Z,20.5
2018-09-23T01:43:37.016Z,20.5
2018-09-23T01:44:36.896Z,20.49
2018-09-23T01:45:36.944Z,20.5
2018-09-23T01:46:37.139Z,20.49
2018-09-23T01:47:36.914Z,20.5
2018-09-23T01:48:37.033Z,20.5
2018-09-23T01:49:36.767Z,20.5
2018-09-23T01:50:36.841Z,20.5
2018-09-23T01:51:36.827Z,20.49
2018-09-23T01:52:36.848Z,20.49
2018-09-23T01:53:36.878Z,20.5
2018-09-23T01:54:37.059Z,20.5
2018-09-23T01:55:36.843Z,20.49
2018-09-23T01:56:36.881Z,20.51
2018-09-23T01:57:36.783Z,20.49
2018-09-23T01:58:36.770Z,20.49
2018-09-23T01:59:37.026Z,20.48
2018-09-23T02:00:36.847Z,20.49
2018-09-23T02:01:36.745Z,20.48
2018-09-23T02:02:36.749Z,20.47
2018-09-23T02:03:36.852Z,20.48
2018-09-23T02:04:37.243Z,20.47
2018-09-23T02:05:36.708Z,20.47
2018-09-23T02:06:36.875Z,20.48
2018-09-23T02:07:36.915Z,20.47
2018-09-23T02:08:36.994Z,20.47
2018-09-23T02:09:37.055Z,20.48
2018-09-23T02:10:36.885Z,20.47
2018-09-23T02:11:36.686Z,20.47
2018-09-23T02:12:36.806Z,20.47
2018-09-23T02:13:37.242Z,20.47
2018-09-23T02:14:36.658Z,20.47
2018-09-23T02:15:37.061Z,20.47
2018-09-23T02:16:36.948Z,20.47
2018-09-23T02:17:36.925Z,20.46
2018-09-23T02:18:36.752Z,20.46
2018-09-23T02:19:36.846Z,20.45
2018-09-23T02:20:36.724Z,20.47
2018-09-23T02:21:37.023Z,20.47
2018-09-23T02:22:37.064Z,20.47
2018-09-23T02:23:36.702Z,20.47
2018-09-23T02:24:37.628Z,20.45
2018-09-23T02:25:36.883Z,20.45
2018-09-23T02:26:36.894Z,20.46
2018-09-23T02:27:37.013Z,20.45
2018-09-23T02:28:37.119Z,20.45
2018-09-23T02:29:36.807Z,20.45
2018-09-23T02:30:36.950Z,20.44
2018-09-23T02:31:37.199Z,20.44
2018-09-23T02:32:36.828Z,20.45
2018-09-23T02:33:37.230Z,20.45
2018-09-23T02:34:37.027Z,20.44
2018-09-23T02:35:37.002Z,20.45
2018-09-23T02:36:37.066Z,20.43
2018-09-23T02:37:36.833Z,20.44
2018-09-23T02:38:37.189Z,20.44
2018-09-23T02:39:36.928Z,20.43
2018-09-23T02:40:36.909Z,20.43
2018-09-23T02:41:36.976Z,20.43
2018-09-23T02:42:36.880Z,20.43
2018-09-23T02:43:36.777Z,20.44
2018-09-23T02:44:36.896Z,20.44
2018-09-23T02:45:36.831Z,20.43
2018-09-23T02:46:37.036Z,20.43
2018-09-23T02:47:36.856Z,20.42
2018-09-23T02:48:36.948Z,20.43
2018-09-23T02:49:36.958Z,20.43
2018-09-23T02:50:36.790Z,20.43
2018-09-23T02:51:36.828Z,20.44
2018-09-23T02:52:37.073Z,20.42
2018-09-23T02:53:37.062Z,20.43
2018-09-23T02:54:36.873Z,20.43
2018-09-23T02:55:36.860Z,20.43
2018-09-23T02:56:36.775Z,20.43
2018-09-23T02:57:36.801Z,20.43
2018-09-23T02:58:36.874Z,20.43
2018-09-23T02:59:37.251Z,20.44
2018-09-23T03:00:37.075Z,20.43
2018-09-23T03:01:37.075Z,20.43
2018-09-23T03:02:36.802Z,20.43
2018-09-23T03:03:37.013Z,20.43
2018-09-23T03:04:36.754Z,20.42
2018-09-23T03:05:36.849Z,20.42
2018-09-23T03:06:36.764Z,20.42
2018-09-23T03:07:36.972Z,20.42
2018-09-23T03:08:37.088Z,20.42
2018-09-23T03:09:36.767Z,20.42
2018-09-23T03:10:36.782Z,20.42
2018-09-23T03:11:37.186Z,20.43
2018-09-23T03:12:36.857Z,20.43
2018-09-23T03:13:36.883Z,20.43
2018-09-23T03:14:36.964Z,20.43
2018-09-23T03:15:37.136Z,20.43
2018-09-23T03:16:36.930Z,20.42
2018-09-23T03:17:36.722Z,20.42
2018-09-23T03:18:37.083Z,20.41
2018-09-23T03:19:36.905Z,20.41
2018-09-23T03:20:36.725Z,20.42
2018-09-23T03:21:36.682Z,20.42
2018-09-23T03:22:36.913Z,20.42
2018-09-23T03:23:37.017Z,20.42
2018-09-23T03:24:36.722Z,20.42
2018-09-23T03:25:36.723Z,20.42
2018-09-23T03:26:36.952Z,20.42
2018-09-23T03:27:36.962Z,20.42
2018-09-23T03:28:36.893Z,20.41
2018-09-23T03:29:36.894Z,20.41
2018-09-23T03:30:36.876Z,20.41
2018-09-23T03:31:36.930Z,20.41
2018-09-23T03:32:37.019Z,20.41
2018-09-23T03:33:36.859Z,20.41
2018-09-23T03:34:36.925Z,20.4
2018-09-23T03:35:37.057Z,20.4
2018-09-23T03:36:36.883Z,20.4
2018-09-23T03:37:36.871Z,20.41
2018-09-23T03:38:36.899Z,20.4
2018-09-23T03:39:37.104Z,20.41
2018-09-23T03:40:37.381Z,20.39
2018-09-23T03:41:37.149Z,20.4
2018-09-23T03:42:37.011Z,20.4
2018-09-23T03:43:36.929Z,20.4
2018-09-23T03:44:37.043Z,20.41
2018-09-23T03:45:36.864Z,20.41
2018-09-23T03:46:36.937Z,20.41
2018-09-23T03:47:36.899Z,20.41
2018-09-23T03:48:36.848Z,20.4
2018-09-23T03:49:36.895Z,20.4
2018-09-23T03:50:37.039Z,20.41
2018-09-23T03:51:36.900Z,20.4
2018-09-23T03:52:37.094Z,20.4
2018-09-23T03:53:37.023Z,20.41
2018-09-23T03:54:36.829Z,20.4
2018-09-23T03:55:37.265Z,20.41
2018-09-23T03:56:36.986Z,20.41
2018-09-23T03:57:36.787Z,20.4
2018-09-23T03:58:36.879Z,20.4
2018-09-23T03:59:37.023Z,20.41
2018-09-23T04:00:36.766Z,20.4
2018-09-23T04:01:36.854Z,20.4
2018-09-23T04:02:37.087Z,20.41
2018-09-23T04:03:36.978Z,20.4
2018-09-23T04:04:36.883Z,20.39
2018-09-23T04:05:36.839Z,20.38
2018-09-23T04:06:37.080Z,20.38
2018-09-23T04:08:36.956Z,20.39
2018-09-23T04:09:37.233Z,20.39
2018-09-23T04:10:36.696Z,20.4
2018-09-23T04:11:36.682Z,20.4
2018-09-23T04:12:36.943Z,20.4
2018-09-23T04:13:37.273Z,20.4
2018-09-23T04:14:36.767Z,20.39
2018-09-23T04:15:36.780Z,20.41
2018-09-23T04:16:36.755Z,20.41
2018-09-23T04:17:37.108Z,20.41
2018-09-23T04:18:36.957Z,20.41
2018-09-23T04:19:37.030Z,20.4
2018-09-23T04:20:36.724Z,20.38
2018-09-23T04:21:36.759Z,20.39
2018-09-23T04:22:36.804Z,20.39
2018-09-23T04:23:36.647Z,20.39
2018-09-23T04:24:36.856Z,20.38
2018-09-23T04:25:36.876Z,20.39
2018-09-23T04:26:37.184Z,20.39
2018-09-23T04:27:36.732Z,20.38
2018-09-23T04:28:36.928Z,20.38
2018-09-23T04:29:36.957Z,20.4
2018-09-23T04:30:36.798Z,20.41
2018-09-23T04:31:38.379Z,20.41
2018-09-23T04:32:36.668Z,20.41
2018-09-23T04:33:36.719Z,20.4
2018-09-23T04:34:36.825Z,20.4
2018-09-23T04:35:36.761Z,20.4
2018-09-23T04:36:36.712Z,20.41
2018-09-23T04:37:36.815Z,20.41
2018-09-23T04:38:36.784Z,20.41
2018-09-23T04:39:36.718Z,20.41
2018-09-23T04:40:36.731Z,20.41
2018-09-23T04:41:36.997Z,20.41
2018-09-23T04:42:36.819Z,20.41
2018-09-23T04:43:36.826Z,20.39
2018-09-23T04:44:36.880Z,20.4
2018-09-23T04:45:37.121Z,20.4
2018-09-23T04:46:39.144Z,20.4
2018-09-23T04:47:36.650Z,20.4
2018-09-23T04:48:36.628Z,20.41
2018-09-23T04:49:37.713Z,20.4
2018-09-23T04:50:36.985Z,20.4
2018-09-23T04:51:36.733Z,20.41
2018-09-23T04:52:36.823Z,20.41
2018-09-23T04:53:36.731Z,20.41
2018-09-23T04:54:36.811Z,20.42
2018-09-23T04:55:36.747Z,20.42
2018-09-23T04:56:36.665Z,20.4
2018-09-23T04:57:36.629Z,20.4
2018-09-23T04:59:38.316Z,20.4
2018-09-23T05:00:36.666Z,20.41
2018-09-23T05:01:36.967Z,20.41
2018-09-23T05:02:37.072Z,20.41
2018-09-23T05:03:36.665Z,20.4
2018-09-23T05:04:36.893Z,20.41
2018-09-23T05:05:37.252Z,20.41
2018-09-23T05:06:36.714Z,20.41
2018-09-23T05:07:36.737Z,20.41
2018-09-23T05:08:37.021Z,20.41
2018-09-23T05:09:36.742Z,20.41
2018-09-23T05:10:36.925Z,20.41
2018-09-23T05:11:36.749Z,20.41
2018-09-23T05:12:36.754Z,20.42
2018-09-23T05:13:36.862Z,20.41
2018-09-23T05:14:36.603Z,20.41
2018-09-23T05:15:36.845Z,20.41
2018-09-23T05:16:36.700Z,20.41
2018-09-23T05:17:36.748Z,20.41
2018-09-23T05:18:36.939Z,20.41
2018-09-23T05:19:37.798Z,20.41
2018-09-23T05:20:37.502Z,20.42
2018-09-23T05:21:36.842Z,20.41
2018-09-23T05:22:36.753Z,20.4
2018-09-23T05:23:36.837Z,20.4
2018-09-23T05:24:36.965Z,20.39
2018-09-23T05:25:36.636Z,20.41
2018-09-23T05:26:36.903Z,20.41
2018-09-23T05:27:36.589Z,20.41
2018-09-23T05:28:36.806Z,20.41
2018-09-23T05:29:36.609Z,20.41
2018-09-23T05:30:36.715Z,20.41
2018-09-23T05:31:36.808Z,20.41
2018-09-23T05:32:37.323Z,20.41
2018-09-23T05:33:36.717Z,20.41
2018-09-23T05:34:36.710Z,20.41
2018-09-23T05:35:36.942Z,20.41
2018-09-23T05:36:36.717Z,20.42
2018-09-23T05:37:36.666Z,20.41
2018-09-23T05:38:38.989Z,20.42
2018-09-23T05:39:38.409Z,20.42
2018-09-23T05:40:37.245Z,20.43
2018-09-23T05:41:36.778Z,20.41
2018-09-23T05:42:36.754Z,20.41
2018-09-23T05:43:36.850Z,20.41
2018-09-23T05:44:36.936Z,20.41
2018-09-23T05:45:37.109Z,20.41
2018-09-23T05:46:36.937Z,20.42
2018-09-23T05:47:38.645Z,20.41
2018-09-23T05:48:38.625Z,20.42
2018-09-23T05:49:37.039Z,20.42
2018-09-23T05:50:38.749Z,20.41
2018-09-23T05:51:36.762Z,20.42
2018-09-23T05:52:39.907Z,20.41
2018-09-23T05:53:36.858Z,20.42
2018-09-23T05:54:36.751Z,20.41
2018-09-23T05:55:36.752Z,20.42
2018-09-23T05:56:36.960Z,20.41
2018-09-23T05:57:36.759Z,20.43
2018-09-23T05:58:36.614Z,20.42
2018-09-23T05:59:36.682Z,20.41
2018-09-23T06:00:36.838Z,20.41
2018-09-23T06:01:36.893Z,20.42
2018-09-23T06:02:36.577Z,20.41
2018-09-23T06:03:36.787Z,20.42
2018-09-23T06:04:36.928Z,20.42
2018-09-23T06:05:36.728Z,20.42
2018-09-23T06:06:36.761Z,20.41
2018-09-23T06:07:36.916Z,20.42
2018-09-23T06:08:36.646Z,20.41
2018-09-23T06:09:36.705Z,20.42
2018-09-23T06:10:36.550Z,20.42
2018-09-23T06:11:36.843Z,20.41
2018-09-23T06:12:36.630Z,20.42
2018-09-23T06:13:36.618Z,20.42
2018-09-23T06:14:36.765Z,20.42
2018-09-23T06:15:36.636Z,20.42
2018-09-23T06:16:40.501Z,20.42
2018-09-23T06:17:36.827Z,20.43
2018-09-23T06:18:36.732Z,20.42
2018-09-23T06:19:36.765Z,20.42
2018-09-23T06:20:36.770Z,20.42
2018-09-23T06:21:36.793Z,20.41
2018-09-23T06:22:36.599Z,20.42
2018-09-23T06:23:36.848Z,20.42
2018-09-23T06:24:37.309Z,20.41
2018-09-23T06:25:36.965Z,20.41
2018-09-23T06:26:36.711Z,20.42
2018-09-23T06:27:36.904Z,20.42
2018-09-23T06:28:36.836Z,20.41
2018-09-23T06:29:36.872Z,20.41
2018-09-23T06:30:36.693Z,20.42
2018-09-23T06:31:36.703Z,20.42
2018-09-23T06:32:36.890Z,20.43
2018-09-23T06:33:36.859Z,20.42
2018-09-23T06:34:37.029Z,20.42
2018-09-23T06:35:36.580Z,20.42
2018-09-23T06:36:36.873Z,20.43
2018-09-23T06:37:36.843Z,20.43
2018-09-23T06:38:36.800Z,20.41
2018-09-23T06:39:36.625Z,20.41
2018-09-23T06:40:37.015Z,20.43
2018-09-23T06:41:37.084Z,20.43
2018-09-23T06:42:37.115Z,20.41
2018-09-23T06:43:37.509Z,20.41
2018-09-23T06:44:36.816Z,20.42
2018-09-23T06:45:37.214Z,20.43
2018-09-23T06:46:36.921Z,20.41
2018-09-23T06:47:36.739Z,20.42
2018-09-23T06:48:36.739Z,20.42
2018-09-23T06:49:36.665Z,20.41
2018-09-23T06:50:36.741Z,20.42
2018-09-23T06:51:36.790Z,20.42
2018-09-23T06:52:37.491Z,20.42
2018-09-23T06:53:36.665Z,20.43
2018-09-23T06:54:38.297Z,20.44
2018-09-23T06:55:37.555Z,20.44
2018-09-23T06:56:36.759Z,20.43
2018-09-23T06:57:36.870Z,20.44
2018-09-23T06:58:36.896Z,20.44
2018-09-23T07:00:36.757Z,20.45
2018-09-23T07:01:38.192Z,20.44
2018-09-23T07:02:36.923Z,20.44
2018-09-23T07:03:36.832Z,20.43
2018-09-23T07:04:37.715Z,20.43
2018-09-23T07:05:37.011Z,20.42
2018-09-23T07:06:37.080Z,20.42
2018-09-23T07:07:37.121Z,20.42
2018-09-23T07:08:36.763Z,20.42
2018-09-23T07:09:36.914Z,20.44
2018-09-23T07:10:37.808Z,20.43
2018-09-23T07:11:36.809Z,20.44
2018-09-23T07:12:36.979Z,20.44
2018-09-23T07:13:36.718Z,20.44
2018-09-23T07:14:36.831Z,20.45
2018-09-23T07:15:36.633Z,20.44
2018-09-23T07:16:36.688Z,20.44
2018-09-23T07:17:36.761Z,20.45
2018-09-23T07:18:36.756Z,20.45
2018-09-23T07:19:36.852Z,20.46
2018-09-23T07:20:36.995Z,20.43
2018-09-23T07:21:36.608Z,20.42
2018-09-23T07:22:36.827Z,20.43
2018-09-23T07:23:37.159Z,20.45
2018-09-23T07:24:36.749Z,20.45
2018-09-23T07:28:36.798Z,20.45
2018-09-23T07:29:36.958Z,20.44
2018-09-23T07:30:36.775Z,20.44
2018-09-23T07:31:36.750Z,20.45
2018-09-23T07:32:36.716Z,20.44
2018-09-23T07:33:36.796Z,20.45
2018-09-23T07:34:36.768Z,20.44
2018-09-23T07:35:36.630Z,20.46
2018-09-23T07:36:36.941Z,20.46
2018-09-23T07:37:36.613Z,20.46
2018-09-23T07:38:36.876Z,20.46
2018-09-23T07:39:37.725Z,20.47
2018-09-23T07:40:36.827Z,20.46
2018-09-23T07:41:37.407Z,20.45
2018-09-23T07:42:36.835Z,20.45
2018-09-23T07:43:36.711Z,20.46
2018-09-23T07:45:36.746Z,20.46
2018-09-23T07:46:36.776Z,20.46
2018-09-23T07:47:36.866Z,20.47
2018-09-23T07:48:36.869Z,20.47
2018-09-23T07:49:36.958Z,20.46
2018-09-23T07:50:36.639Z,20.46
2018-09-23T07:51:37.016Z,20.47
2018-09-23T07:52:36.878Z,20.46
2018-09-23T07:53:36.680Z,20.45
2018-09-23T07:54:36.830Z,20.47
2018-09-23T07:55:37.036Z,20.47
2018-09-23T07:56:37.858Z,20.47
2018-09-23T07:57:36.862Z,20.47
2018-09-23T07:58:36.789Z,20.47
2018-09-23T07:59:36.819Z,20.46
2018-09-23T08:00:36.785Z,20.46
2018-09-23T08:01:36.965Z,20.46
2018-09-23T08:02:36.908Z,20.46
2018-09-23T08:03:37.961Z,20.46
2018-09-23T08:04:37.830Z,20.45
2018-09-23T08:05:36.659Z,20.46
2018-09-23T08:06:36.814Z,20.47
2018-09-23T08:07:36.823Z,20.47
2018-09-23T08:08:37.363Z,20.47
2018-09-23T08:09:36.833Z,20.46
2018-09-23T08:11:36.812Z,20.47
2018-09-23T08:12:38.623Z,20.47
2018-09-23T08:13:40.959Z,20.47
2018-09-23T08:14:41.330Z,20.47
2018-09-23T08:15:36.844Z,20.47
2018-09-23T08:17:37.060Z,20.47
2018-09-23T08:18:36.757Z,20.47
2018-09-23T08:19:38.599Z,20.48
2018-09-23T08:20:38.091Z,20.48
2018-09-23T08:21:36.727Z,20.48
2018-09-23T08:22:36.816Z,20.48
2018-09-23T08:23:36.713Z,20.49
2018-09-23T08:24:36.858Z,20.49
2018-09-23T08:25:37.634Z,20.47
2018-09-23T08:26:37.974Z,20.48
2018-09-23T08:27:36.838Z,20.48
2018-09-23T08:28:36.928Z,20.48
2018-09-23T08:29:36.900Z,20.48
2018-09-23T08:30:38.013Z,20.48
2018-09-23T08:31:36.524Z,20.47
2018-09-23T08:36:36.758Z,20.53
2018-09-23T08:37:36.916Z,20.56
2018-09-23T08:38:37.029Z,20.57
2018-09-23T08:39:36.803Z,20.56
2018-09-23T08:40:38.309Z,20.55
2018-09-23T08:41:36.760Z,20.55
2018-09-23T08:42:36.603Z,20.56
2018-09-23T08:43:36.974Z,20.55
2018-09-23T08:44:37.093Z,20.57
2018-09-23T08:45:36.554Z,20.59
2018-09-23T08:46:36.793Z,20.62
2018-09-23T08:47:36.859Z,20.65
2018-09-23T08:48:36.589Z,20.62
2018-09-23T08:49:36.871Z,20.64
2018-09-23T08:50:36.844Z,20.62
2018-09-23T08:51:36.918Z,20.63
2018-09-23T08:52:37.018Z,20.61
2018-09-23T08:53:36.944Z,20.63
2018-09-23T08:55:36.927Z,20.64
2018-09-23T08:56:37.352Z,20.62
2018-09-23T08:57:37.048Z,20.64
2018-09-23T08:58:36.654Z,20.65
2018-09-23T08:59:36.965Z,20.66
2018-09-23T09:00:28.132Z,20.76
2018-09-23T09:01:28.094Z,20.79
2018-09-23T09:02:28.482Z,20.83
2018-09-23T09:03:28.516Z,20.83
2018-09-23T09:04:28.468Z,20.83
2018-09-23T09:05:28.269Z,20.83
2018-09-23T09:06:28.473Z,20.83
2018-09-23T09:07:28.431Z,20.84
2018-09-23T09:08:28.364Z,20.84
2018-09-23T09:09:28.336Z,20.84
2018-09-23T09:10:28.545Z,20.85
2018-09-23T09:11:29.181Z,20.85
2018-09-23T09:12:31.798Z,20.87
2018-09-23T09:13:31.719Z,20.87
2018-09-23T09:14:31.725Z,20.88
2018-09-23T09:15:31.596Z,20.89
2018-09-23T09:16:31.903Z,20.89
2018-09-23T09:17:31.682Z,20.89
2018-09-23T09:18:33.151Z,20.91
2018-09-23T09:19:31.910Z,20.92
2018-09-23T09:20:31.624Z,20.93
2018-09-23T09:21:31.736Z,20.94
2018-09-23T09:22:31.687Z,20.95
2018-09-23T09:23:32.001Z,20.96
2018-09-23T09:24:31.595Z,20.98
2018-09-23T09:25:31.893Z,21
2018-09-23T09:26:32.226Z,21.01
2018-09-23T09:27:31.820Z,21.02
2018-09-23T09:28:31.504Z,21.03
2018-09-23T09:29:31.903Z,21.04
2018-09-23T09:30:31.493Z,21.06
2018-09-23T09:31:31.864Z,21.07
2018-09-23T09:32:31.624Z,21.07
2018-09-23T09:33:31.764Z,21.08
2018-09-23T09:34:31.618Z,21.08
2018-09-23T09:35:38.170Z,21.08
2018-09-23T09:36:38.391Z,21.09
2018-09-23T09:37:38.733Z,21.1
2018-09-23T09:38:38.694Z,21.1
2018-09-23T09:39:38.089Z,21.09
2018-09-23T09:40:38.568Z,21.09
2018-09-23T09:41:38.591Z,21.07
2018-09-23T09:42:38.766Z,21.07
2018-09-23T09:43:38.397Z,21.08
2018-09-23T09:44:38.184Z,21.08
2018-09-23T09:45:38.616Z,21.07
2018-09-23T09:46:38.525Z,21.07
2018-09-23T09:47:38.738Z,21.07
2018-09-23T09:48:38.029Z,21.06
2018-09-23T09:49:38.117Z,21.05
2018-09-23T09:50:38.274Z,21.04
2018-09-23T09:51:38.291Z,21.04
2018-09-23T09:52:38.356Z,21.04
2018-09-23T09:53:38.222Z,21.04
2018-09-23T09:54:38.204Z,21.04
2018-09-23T09:55:38.495Z,21.04
2018-09-23T09:56:38.487Z,21.04
2018-09-23T09:57:39.300Z,21.04
2018-09-23T09:58:38.236Z,21.05
2018-09-23T09:59:38.296Z,21.05
2018-09-23T10:00:38.146Z,21.06
2018-09-23T10:01:38.364Z,21.06
2018-09-23T10:02:38.167Z,21.06
2018-09-23T10:03:38.908Z,21.07
2018-09-23T10:04:38.400Z,21.07
2018-09-23T10:05:38.112Z,21.07
2018-09-23T10:06:38.196Z,21.07
2018-09-23T10:07:38.196Z,21.07
2018-09-23T10:08:38.210Z,21.07
2018-09-23T10:09:38.638Z,21.08
2018-09-23T10:10:38.192Z,21.09
2018-09-23T10:11:39.816Z,21.11
2018-09-23T10:12:38.097Z,21.11
2018-09-23T10:13:38.226Z,21.12
2018-09-23T10:15:43.718Z,21.13
2018-09-23T10:16:31.953Z,21.13
2018-09-23T10:17:29.669Z,21.14
2018-09-23T10:18:38.808Z,21.15
2018-09-23T10:19:38.924Z,21.15
2018-09-23T10:20:39.091Z,21.16
2018-09-23T10:21:39.032Z,21.16
2018-09-23T10:23:16.413Z,21.13
2018-09-23T10:24:15.032Z,21.12
2018-09-23T10:25:15.242Z,21.12
2018-09-23T10:26:07.857Z,21.12
2018-09-23T10:27:08.125Z,21.11
2018-09-23T10:28:07.742Z,21.11
2018-09-23T10:29:07.770Z,21.13
2018-09-23T10:30:08.122Z,21.13
2018-09-23T10:31:08.731Z,21.14
2018-09-23T10:32:07.854Z,21.13
2018-09-23T10:33:07.662Z,21.13
2018-09-23T10:34:08.103Z,21.13
2018-09-23T10:35:07.693Z,21.13
2018-09-23T10:36:08.283Z,21.13
2018-09-23T10:37:07.611Z,21.13
2018-09-23T10:38:07.716Z,21.12
2018-09-23T10:39:07.838Z,21.11
2018-09-23T10:40:07.671Z,21.11
2018-09-23T10:41:08.094Z,21.11
2018-09-23T10:42:07.693Z,21.09
2018-09-23T10:43:07.753Z,21.1
2018-09-23T10:44:07.997Z,21.11
2018-09-23T10:45:07.547Z,21.12
2018-09-23T10:46:07.693Z,21.13
2018-09-23T10:47:07.988Z,21.13
2018-09-23T10:48:07.675Z,21.13
2018-09-23T10:48:54.693Z,21.13
2018-09-23T10:49:44.924Z,21.13
2018-09-23T10:50:45.097Z,21.13
2018-09-23T10:51:44.927Z,21.13
2018-09-23T10:52:45.056Z,21.13
2018-09-23T10:56:08.366Z,21.14
2018-09-23T10:57:02.304Z,21.13
2018-09-23T10:58:02.687Z,21.12
2018-09-23T10:59:02.819Z,21.11
2018-09-23T11:00:02.480Z,21.1
2018-09-23T11:01:02.432Z,21.1
2018-09-23T11:02:02.401Z,21.11
2018-09-23T11:03:13.708Z,21.13
2018-09-23T11:04:15.051Z,21.13
2018-09-23T11:05:14.870Z,21.13
2018-09-23T11:06:13.787Z,21.13
2018-09-23T11:07:14.209Z,21.13
2018-09-23T11:08:14.001Z,21.13
2018-09-23T11:09:13.945Z,21.13
2018-09-23T11:10:14.153Z,21.13
2018-09-23T11:11:14.088Z,21.13
2018-09-23T11:12:14.219Z,21.13
2018-09-23T11:13:33.980Z,21.13
2018-09-23T11:15:03.227Z,21.13
2018-09-23T11:15:31.467Z,21.13
2018-09-23T11:16:31.264Z,21.13
2018-09-23T11:17:31.714Z,21.13
2018-09-23T11:18:31.584Z,21.13
2018-09-23T11:19:31.110Z,21.12
2018-09-23T11:20:31.380Z,21.13
2018-09-23T11:21:31.383Z,21.12
2018-09-23T11:22:31.309Z,21.12
2018-09-23T11:23:31.946Z,21.12
2018-09-23T11:24:55.993Z,21.13
2018-09-23T11:25:54.804Z,21.13
2018-09-23T11:26:37.641Z,21.13
2018-09-23T11:28:04.785Z,21.13
2018-09-23T11:29:24.772Z,21.13
2018-09-23T11:30:24.873Z,21.12
2018-09-23T11:31:48.877Z,21.13
2018-09-23T11:38:52.317Z,21.13
2018-09-23T11:39:54.362Z,21.13
2018-09-23T11:40:53.908Z,21.13
2018-09-23T11:41:54.009Z,21.1
2018-09-23T11:43:12.008Z,21.07
2018-09-23T11:44:12.021Z,21.05
2018-09-23T11:45:12.209Z,21.02
2018-09-23T11:46:12.027Z,21.01
2018-09-23T11:47:12.144Z,20.99
2018-09-23T11:48:12.049Z,20.97
2018-09-23T11:49:12.193Z,20.95
2018-09-23T11:50:12.251Z,20.95
2018-09-23T11:51:11.971Z,20.92
2018-09-23T11:52:12.117Z,20.91
2018-09-23T11:53:11.984Z,20.9
2018-09-23T11:54:11.954Z,20.89
2018-09-23T11:55:12.548Z,20.88
2018-09-23T11:56:12.152Z,20.87
2018-09-23T11:57:12.111Z,20.86
2018-09-23T11:58:11.974Z,20.85
2018-09-23T11:59:12.470Z,20.83
2018-09-23T12:00:11.928Z,20.83
2018-09-23T12:01:12.226Z,20.83
2018-09-23T12:02:12.972Z,20.82
2018-09-23T12:03:12.010Z,20.81
2018-09-23T12:04:12.107Z,20.8
2018-09-23T12:05:12.078Z,20.79
2018-09-23T12:06:11.886Z,20.79
2018-09-23T12:07:12.259Z,20.78
2018-09-23T12:08:12.371Z,20.77
2018-09-23T12:09:12.043Z,20.77
2018-09-23T12:10:12.588Z,20.77
2018-09-23T12:11:12.301Z,20.76
2018-09-23T12:12:12.282Z,20.76
2018-09-23T12:13:12.240Z,20.75
2018-09-23T12:14:12.328Z,20.75
2018-09-23T12:15:12.308Z,20.74
2018-09-23T12:16:12.054Z,20.73
2018-09-23T12:17:12.152Z,20.73
2018-09-23T12:18:11.912Z,20.72
2018-09-23T12:19:12.009Z,20.71
2018-09-23T12:20:12.073Z,20.71
2018-09-23T12:21:12.011Z,20.71
2018-09-23T12:22:12.888Z,20.71
2018-09-23T12:23:12.419Z,20.71
2018-09-23T12:24:11.913Z,20.69
2018-09-23T12:25:12.288Z,20.69
2018-09-23T12:26:12.239Z,20.69
2018-09-23T12:27:12.120Z,20.68
2018-09-23T12:28:12.299Z,20.68
2018-09-23T12:29:12.338Z,20.67
2018-09-23T12:30:12.212Z,20.67
2018-09-23T12:31:12.139Z,20.66
2018-09-23T12:32:12.239Z,20.65
2018-09-23T12:33:13.106Z,20.65
2018-09-23T12:34:12.153Z,20.65
2018-09-23T12:35:12.092Z,20.68
2018-09-23T12:36:12.205Z,20.72
2018-09-23T12:37:12.397Z,20.74
2018-09-23T12:38:11.935Z,20.71
2018-09-23T12:39:12.158Z,20.71
2018-09-23T12:40:12.216Z,20.72
2018-09-23T12:41:11.978Z,20.72
2018-09-23T12:42:12.280Z,20.71
2018-09-23T12:43:12.163Z,20.72
2018-09-23T12:44:12.233Z,20.73
2018-09-23T12:45:11.975Z,20.73
2018-09-23T12:46:13.316Z,20.73
2018-09-23T12:47:12.266Z,20.73
2018-09-23T12:48:12.080Z,20.74
2018-09-23T12:49:11.875Z,20.75
2018-09-23T12:50:12.108Z,20.76
2018-09-23T12:51:12.445Z,20.76
2018-09-23T12:52:12.105Z,20.77
2018-09-23T12:53:12.032Z,20.77
2018-09-23T12:54:11.972Z,20.78
2018-09-23T12:55:12.102Z,20.78
2018-09-23T12:56:12.139Z,20.79
2018-09-23T12:57:12.107Z,20.8
2018-09-23T12:58:12.064Z,20.81
2018-09-23T12:59:12.159Z,20.81
2018-09-23T13:00:11.967Z,20.82
2018-09-23T13:01:12.005Z,20.82
2018-09-23T13:02:11.928Z,20.83
2018-09-23T13:03:13.279Z,20.83
2018-09-23T13:04:12.108Z,20.83
2018-09-23T13:05:12.225Z,20.84
2018-09-23T13:06:12.054Z,20.84
2018-09-23T13:07:11.997Z,20.85
2018-09-23T13:08:12.116Z,20.85
2018-09-23T13:09:12.073Z,20.85
2018-09-23T13:10:12.145Z,20.86
2018-09-23T13:11:11.940Z,20.87
2018-09-23T13:12:12.352Z,20.87
2018-09-23T13:13:12.004Z,20.87
2018-09-23T13:14:12.410Z,20.87
2018-09-23T13:15:12.095Z,20.87
2018-09-23T13:16:12.092Z,20.92
2018-09-23T13:17:12.161Z,20.95
2018-09-23T13:18:13.772Z,20.98
2018-09-23T13:19:12.230Z,21
2018-09-23T13:20:12.316Z,21.02